sensor_id;sensor_type;location;lat;lon;timestamp;temperature;humidity
5828;DHT22;42583;50.240;8.444;2023-06-22T00:10:19;21.70;90.10
5828;DHT22;42583;50.240;8.444;2023-06-22T00:25:20;21.60;90.60
5828;DHT22;42583;50.240;8.444;2023-06-22T00:40:20;21.70;90.30
5828;DHT22;42583;50.240;8.444;2023-06-22T00:55:22;21.50;90.10
5828;DHT22;42583;50.240;8.444;2023-06-22T01:10:47;21.40;91.60
5828;DHT22;42583;50.240;8.444;2023-06-22T01:26:09;21.50;94.00
5828;DHT22;42583;50.240;8.444;2023-06-22T01:41:16;21.30;98.00
5828;DHT22;42583;50.240;8.444;2023-06-22T01:56:17;21.00;99.80
5828;DHT22;42583;50.240;8.444;2023-06-22T02:11:19;20.70;99.90
5828;DHT22;42583;50.240;8.444;2023-06-22T02:26:21;20.60;99.90
5828;DHT22;42583;50.240;8.444;2023-06-22T02:41:21;20.60;99.90
5828;DHT22;42583;50.240;8.444;2023-06-22T02:56:22;20.60;99.90
5828;DHT22;42583;50.240;8.444;2023-06-22T03:11:25;20.60;99.90
5828;DHT22;42583;50.240;8.444;2023-06-22T03:26:25;20.60;99.90
5828;DHT22;42583;50.240;8.444;2023-06-22T03:41:27;20.60;99.90
5828;DHT22;42583;50.240;8.444;2023-06-22T03:56:27;20.60;99.90
5828;DHT22;42583;50.240;8.444;2023-06-22T04:11:28;20.70;99.90
5828;DHT22;42583;50.240;8.444;2023-06-22T04:26:28;20.80;99.90
5828;DHT22;42583;50.240;8.444;2023-06-22T04:41:29;20.90;99.90
5828;DHT22;42583;50.240;8.444;2023-06-22T04:56:29;20.90;99.90
5828;DHT22;42583;50.240;8.444;2023-06-22T05:11:30;21.00;99.90
5828;DHT22;42583;50.240;8.444;2023-06-22T05:26:33;21.10;99.90
5828;DHT22;42583;50.240;8.444;2023-06-22T05:41:33;21.00;99.90
5828;DHT22;42583;50.240;8.444;2023-06-22T05:56:34;21.00;99.90
5828;DHT22;42583;50.240;8.444;2023-06-22T06:11:34;21.00;99.90
5828;DHT22;42583;50.240;8.444;2023-06-22T06:26:35;21.30;99.90
5828;DHT22;42583;50.240;8.444;2023-06-22T06:41:36;21.70;99.90
5828;DHT22;42583;50.240;8.444;2023-06-22T06:56:36;22.10;99.90
5828;DHT22;42583;50.240;8.444;2023-06-22T07:11:37;22.50;99.90
5828;DHT22;42583;50.240;8.444;2023-06-22T07:26:37;22.80;99.90
5828;DHT22;42583;50.240;8.444;2023-06-22T07:41:39;23.20;98.80
5828;DHT22;42583;50.240;8.444;2023-06-22T07:56:41;23.70;97.40
5828;DHT22;42583;50.240;8.444;2023-06-22T08:11:41;24.10;96.20
5828;DHT22;42583;50.240;8.444;2023-06-22T08:26:42;24.90;94.10
5828;DHT22;42583;50.240;8.444;2023-06-22T08:41:42;25.50;92.60
5828;DHT22;42583;50.240;8.444;2023-06-22T08:56:43;25.80;90.90
5828;DHT22;42583;50.240;8.444;2023-06-22T09:11:44;26.00;87.90
5828;DHT22;42583;50.240;8.444;2023-06-22T09:26:45;26.40;85.10
5828;DHT22;42583;50.240;8.444;2023-06-22T09:41:45;26.50;84.30
5828;DHT22;42583;50.240;8.444;2023-06-22T09:56:46;26.60;84.00
5828;DHT22;42583;50.240;8.444;2023-06-22T10:11:46;26.80;81.70
5828;DHT22;42583;50.240;8.444;2023-06-22T10:26:47;27.20;81.50
5828;DHT22;42583;50.240;8.444;2023-06-22T10:41:47;27.60;79.50
5828;DHT22;42583;50.240;8.444;2023-06-22T10:56:48;28.00;79.70
5828;DHT22;42583;50.240;8.444;2023-06-22T11:11:51;27.90;75.40
5828;DHT22;42583;50.240;8.444;2023-06-22T11:26:53;28.10;72.80
5828;DHT22;42583;50.240;8.444;2023-06-22T11:41:54;28.40;71.70
5828;DHT22;42583;50.240;8.444;2023-06-22T11:56:54;28.90;61.60
5828;DHT22;42583;50.240;8.444;2023-06-22T12:11:55;29.30;61.50
5828;DHT22;42583;50.240;8.444;2023-06-22T12:26:58;29.70;61.00
5828;DHT22;42583;50.240;8.444;2023-06-22T12:41:59;29.70;59.00
5828;DHT22;42583;50.240;8.444;2023-06-22T12:56:59;30.10;59.00
5828;DHT22;42583;50.240;8.444;2023-06-22T13:12:00;31.30;55.50
5828;DHT22;42583;50.240;8.444;2023-06-22T13:27:00;31.50;55.30
5828;DHT22;42583;50.240;8.444;2023-06-22T13:42:01;32.00;51.80
5828;DHT22;42583;50.240;8.444;2023-06-22T13:57:02;31.70;51.70
5828;DHT22;42583;50.240;8.444;2023-06-22T14:12:06;31.90;52.00
5828;DHT22;42583;50.240;8.444;2023-06-22T14:27:07;31.10;53.30
5828;DHT22;42583;50.240;8.444;2023-06-22T14:42:09;29.70;56.10
5828;DHT22;42583;50.240;8.444;2023-06-22T14:57:10;28.80;58.40
5828;DHT22;42583;50.240;8.444;2023-06-22T15:12:10;28.40;59.60
5828;DHT22;42583;50.240;8.444;2023-06-22T15:27:11;28.00;57.00
5828;DHT22;42583;50.240;8.444;2023-06-22T15:42:13;27.40;61.40
5828;DHT22;42583;50.240;8.444;2023-06-22T15:57:14;23.10;75.20
5828;DHT22;42583;50.240;8.444;2023-06-22T16:12:14;21.60;91.10
5828;DHT22;42583;50.240;8.444;2023-06-22T16:27:15;21.60;99.90
5828;DHT22;42583;50.240;8.444;2023-06-22T16:42:16;20.80;99.90
5828;DHT22;42583;50.240;8.444;2023-06-22T16:57:20;20.60;99.90
5828;DHT22;42583;50.240;8.444;2023-06-22T17:12:21;20.50;99.90
5828;DHT22;42583;50.240;8.444;2023-06-22T17:27:27;20.50;99.90
5828;DHT22;42583;50.240;8.444;2023-06-22T17:42:28;20.70;99.90
5828;DHT22;42583;50.240;8.444;2023-06-22T17:57:35;20.90;99.90
5828;DHT22;42583;50.240;8.444;2023-06-22T18:12:37;21.10;99.90
5828;DHT22;42583;50.240;8.444;2023-06-22T18:27:40;21.30;99.90
5828;DHT22;42583;50.240;8.444;2023-06-22T18:42:45;21.40;99.90
5828;DHT22;42583;50.240;8.444;2023-06-22T18:58:12;21.50;99.90
5828;DHT22;42583;50.240;8.444;2023-06-22T19:28:16;21.30;99.90
5828;DHT22;42583;50.240;8.444;2023-06-22T19:43:17;21.20;99.90
5828;DHT22;42583;50.240;8.444;2023-06-22T19:58:20;21.00;99.90
5828;DHT22;42583;50.240;8.444;2023-06-22T20:13:20;20.90;99.90
5828;DHT22;42583;50.240;8.444;2023-06-22T20:28:25;20.70;99.90
5828;DHT22;42583;50.240;8.444;2023-06-22T20:43:26;20.50;99.90
5828;DHT22;42583;50.240;8.444;2023-06-22T20:58:26;20.30;99.90
5828;DHT22;42583;50.240;8.444;2023-06-22T21:13:27;20.00;99.90
5828;DHT22;42583;50.240;8.444;2023-06-22T21:28:30;19.60;99.90
5828;DHT22;42583;50.240;8.444;2023-06-22T21:43:30;19.30;99.90
5828;DHT22;42583;50.240;8.444;2023-06-22T21:58:31;19.00;99.90
5828;DHT22;42583;50.240;8.444;2023-06-22T22:13:31;18.60;99.90
5828;DHT22;42583;50.240;8.444;2023-06-22T22:28:32;18.40;99.90
5828;DHT22;42583;50.240;8.444;2023-06-22T22:43:34;18.10;99.90
5828;DHT22;42583;50.240;8.444;2023-06-22T22:58:35;17.70;99.90
5828;DHT22;42583;50.240;8.444;2023-06-22T23:13:37;17.20;99.90
5828;DHT22;42583;50.240;8.444;2023-06-22T23:28:38;16.90;99.90
5828;DHT22;42583;50.240;8.444;2023-06-22T23:43:38;16.60;99.90
5828;DHT22;42583;50.240;8.444;2023-06-22T23:58:39;16.40;99.90
